createdAt,value
2018-09-13T18:51:36.759Z,27.72
2018-09-13T18:52:17.532Z,27.62
2018-09-13T18:52:58.373Z,27.7
2018-09-13T18:53:39.217Z,27.63
2018-09-13T18:54:19.978Z,27.63
2018-09-13T18:55:00.658Z,27.7
2018-09-13T18:55:41.422Z,27.63
2018-09-13T18:56:22.252Z,27.59
2018-09-13T18:57:03.020Z,27.55
2018-09-13T18:57:44.085Z,27.65
2018-09-13T18:58:24.906Z,27.6
2018-09-13T18:59:05.576Z,27.55
2018-09-13T18:59:46.366Z,27.66
2018-09-13T19:00:27.120Z,27.57
2018-09-13T19:01:07.966Z,27.57
2018-09-13T19:01:48.694Z,27.66
2018-09-13T19:02:29.413Z,27.63
2018-09-13T19:03:10.245Z,27.65
2018-09-13T19:03:51.062Z,27.63
2018-09-13T19:04:31.867Z,27.66
2018-09-13T19:05:12.627Z,27.69
2018-09-13T19:05:53.393Z,27.63
2018-09-13T19:06:34.274Z,27.63
2018-09-13T19:07:15.046Z,27.63
2018-09-13T19:07:55.847Z,27.66
2018-09-13T19:08:36.550Z,27.69
2018-09-13T19:09:17.332Z,27.7
2018-09-13T19:09:58.211Z,27.62
2018-09-13T19:10:39.045Z,27.69
2018-09-13T19:11:19.783Z,27.63
2018-09-13T19:12:00.641Z,27.66
2018-09-13T19:12:41.456Z,27.67
2018-09-13T19:13:22.270Z,27.69
2018-09-13T19:14:03.005Z,27.7
2018-09-13T19:14:43.750Z,27.67
2018-09-13T19:15:24.532Z,27.65
2018-09-13T19:16:05.294Z,27.66
2018-09-13T19:16:46.062Z,27.62
2018-09-13T19:17:26.910Z,27.63
2018-09-13T19:18:07.655Z,27.67
2018-09-13T19:18:48.402Z,27.65
2018-09-13T19:19:29.252Z,27.66
2018-09-13T19:20:11.116Z,27.63
2018-09-13T19:20:51.906Z,27.66
2018-09-13T19:21:32.744Z,27.7
2018-09-13T19:22:13.536Z,27.66
2018-09-13T19:22:54.369Z,27.62
2018-09-13T19:23:36.084Z,27.69
2018-09-13T19:24:16.888Z,27.65
2018-09-13T19:24:57.718Z,27.6
2018-09-13T19:25:38.495Z,27.62
2018-09-13T19:26:19.211Z,27.62
2018-09-13T19:27:00.042Z,27.7
2018-09-13T19:27:40.789Z,27.65
2018-09-13T19:28:21.552Z,27.59
2018-09-13T19:29:02.360Z,27.67
2018-09-13T19:29:43.125Z,27.6
2018-09-13T19:30:24.054Z,27.69
2018-09-13T19:31:05.203Z,27.67
2018-09-13T19:31:46.559Z,27.62
2018-09-13T19:32:28.205Z,27.6
2018-09-13T19:33:09.028Z,27.65
2018-09-13T19:33:50.026Z,27.69
2018-09-13T19:34:30.858Z,27.67
2018-09-13T19:35:11.661Z,27.66
2018-09-13T19:35:52.386Z,27.62
2018-09-13T19:36:33.164Z,27.67
2018-09-13T19:37:13.988Z,27.74
2018-09-13T19:37:54.773Z,27.62
2018-09-13T19:38:35.623Z,27.63
2018-09-13T19:39:16.334Z,27.67
2018-09-13T19:39:57.179Z,27.66
2018-09-13T19:40:38.020Z,27.74
2018-09-13T19:41:18.764Z,27.65
2018-09-13T19:41:59.575Z,27.62
2018-09-13T19:42:40.402Z,27.7
2018-09-13T19:43:21.270Z,27.66
2018-09-13T19:44:02.077Z,27.74
2018-09-13T19:44:42.764Z,27.74
2018-09-13T19:45:23.607Z,27.7
2018-09-13T19:46:05.023Z,27.7
2018-09-13T19:46:45.773Z,27.67
2018-09-13T19:47:26.484Z,27.66
2018-09-13T19:48:07.199Z,27.67
2018-09-13T19:48:48.236Z,27.66
2018-09-13T19:49:29.040Z,27.63
2018-09-13T19:50:09.876Z,27.69
2018-09-13T19:50:50.724Z,27.75
2018-09-13T19:51:31.456Z,27.7
2018-09-13T19:52:12.273Z,27.69
2018-09-13T19:52:53.084Z,27.63
2018-09-13T19:53:33.941Z,27.66
2018-09-13T19:54:14.675Z,27.69
2018-09-13T19:54:55.430Z,27.66
2018-09-13T19:55:36.341Z,27.7
2018-09-13T19:56:17.164Z,27.7
2018-09-13T19:56:57.954Z,27.67
2018-09-13T19:57:38.662Z,27.66
2018-09-13T19:58:19.532Z,27.63
2018-09-13T19:59:00.291Z,27.59
2018-09-13T19:59:41.080Z,27.65
2018-09-13T20:00:21.841Z,27.66
2018-09-13T20:01:02.601Z,27.63
2018-09-13T20:01:44.081Z,27.66
2018-09-13T20:02:24.921Z,27.65
2018-09-13T20:03:05.765Z,27.65
2018-09-13T20:03:46.555Z,27.66
2018-09-13T20:04:27.339Z,27.6
2018-09-13T20:05:08.230Z,27.67
2018-09-13T20:05:49.076Z,27.63
2018-09-13T20:06:29.804Z,27.55
2018-09-13T20:07:10.536Z,27.6
2018-09-13T20:07:51.339Z,27.55
2018-09-13T20:08:32.175Z,27.66
2018-09-13T20:09:13.000Z,27.66
2018-09-13T20:09:53.778Z,27.67
2018-09-13T20:10:34.519Z,27.66
2018-09-13T20:11:15.358Z,27.66
2018-09-13T20:11:56.289Z,27.69
2018-09-13T20:12:37.003Z,27.66
2018-09-13T20:13:17.716Z,27.63
2018-09-13T20:13:58.542Z,27.66
2018-09-13T20:14:39.336Z,27.66
2018-09-13T20:15:20.088Z,27.67
2018-09-13T20:16:00.837Z,27.65
2018-09-13T20:16:41.632Z,27.57
2018-09-13T20:17:22.483Z,27.57
2018-09-13T20:18:03.349Z,27.57
2018-09-13T20:18:44.147Z,27.6
2018-09-13T20:19:24.894Z,27.63
2018-09-13T20:20:05.697Z,27.67
2018-09-13T20:20:46.469Z,27.65
2018-09-13T20:21:27.187Z,27.63
2018-09-13T20:22:09.255Z,27.63
2018-09-13T20:22:48.685Z,27.63
2018-09-13T20:23:29.525Z,27.63
2018-09-13T20:24:10.338Z,27.66
2018-09-13T20:24:51.314Z,27.66
2018-09-13T20:25:31.969Z,27.57
2018-09-13T20:26:12.749Z,27.63
2018-09-13T20:26:53.539Z,27.66
2018-09-13T20:27:34.289Z,27.66
2018-09-13T20:28:15.094Z,27.65
2018-09-13T20:28:55.953Z,27.55
2018-09-13T20:29:36.670Z,27.63
2018-09-13T20:30:17.568Z,27.65
2018-09-13T20:30:58.453Z,27.7
2018-09-13T20:31:39.232Z,27.6
2018-09-13T20:32:20.131Z,27.67
2018-09-13T20:33:00.925Z,27.69
2018-09-13T20:33:41.672Z,27.65
2018-09-13T20:34:22.515Z,27.66
2018-09-13T20:35:03.321Z,27.66
2018-09-13T20:35:44.143Z,27.66
2018-09-13T20:36:25.178Z,27.6
2018-09-13T20:37:05.793Z,27.66
2018-09-13T20:37:46.621Z,27.55
2018-09-13T20:38:27.464Z,27.57
2018-09-13T20:39:08.444Z,27.55
2018-09-13T20:39:49.120Z,27.55
2018-09-13T20:40:29.860Z,27.63
2018-09-13T20:41:10.754Z,27.55
2018-09-13T20:41:51.613Z,27.63
2018-09-13T20:42:32.464Z,27.62
2018-09-13T20:43:13.298Z,27.67
2018-09-13T20:43:54.269Z,27.67
2018-09-13T20:44:35.079Z,27.7
2018-09-13T20:45:15.931Z,27.63
2018-09-13T20:45:56.823Z,27.65
2018-09-13T20:46:37.599Z,27.59
2018-09-13T20:47:18.390Z,27.67
2018-09-13T20:47:59.202Z,27.67
2018-09-13T20:48:40.158Z,27.63
2018-09-13T20:49:21.075Z,27.66
2018-09-13T20:50:01.803Z,27.66
2018-09-13T20:50:42.624Z,27.63
2018-09-13T20:51:23.525Z,27.57
2018-09-13T20:52:04.177Z,27.63
2018-09-13T20:52:44.978Z,27.55
2018-09-13T20:53:25.696Z,27.63
2018-09-13T20:54:06.511Z,27.63
2018-09-13T20:54:47.365Z,27.54
2018-09-13T20:55:28.097Z,27.63
2018-09-13T20:56:08.873Z,27.62
2018-09-13T20:56:49.708Z,27.66
2018-09-13T20:57:30.637Z,27.65
2018-09-13T20:58:11.401Z,27.51
2018-09-13T20:58:52.183Z,27.69
2018-09-13T20:59:32.943Z,27.55
2018-09-13T21:00:13.733Z,27.57
2018-09-13T21:00:54.607Z,27.54
2018-09-13T21:01:35.360Z,27.51
2018-09-13T21:02:16.190Z,27.5
2018-09-13T21:02:56.932Z,27.57
2018-09-13T21:03:37.727Z,27.63
2018-09-13T21:04:18.558Z,27.59
2018-09-13T21:04:59.281Z,27.51
2018-09-13T21:05:40.028Z,27.55
2018-09-13T21:06:20.814Z,27.5
2018-09-13T21:07:01.661Z,27.54
2018-09-13T21:07:42.521Z,27.55
2018-09-13T21:08:23.366Z,27.5
2018-09-13T21:09:04.177Z,27.51
2018-09-13T21:09:44.922Z,27.54
2018-09-13T21:10:25.721Z,27.59
2018-09-13T21:11:06.484Z,27.63
2018-09-13T21:11:47.337Z,27.55
2018-09-13T21:12:28.178Z,27.57
2018-09-13T21:13:08.985Z,27.59
2018-09-13T21:13:49.772Z,27.51
2018-09-13T21:14:30.598Z,27.55
2018-09-13T21:15:11.444Z,27.5
2018-09-13T21:15:52.250Z,27.54
2018-09-13T21:16:33.012Z,27.59
2018-09-13T21:17:13.916Z,27.5
2018-09-13T21:17:54.646Z,27.57
2018-09-13T21:18:35.489Z,27.59
2018-09-13T21:19:16.325Z,27.49
2018-09-13T21:19:57.200Z,27.51
2018-09-13T21:20:37.915Z,27.51
2018-09-13T21:21:18.732Z,27.51
2018-09-13T21:21:59.582Z,27.6
2018-09-13T21:22:40.291Z,27.57
2018-09-13T21:23:21.127Z,27.57
2018-09-13T21:24:01.964Z,27.55
2018-09-13T21:24:42.731Z,27.54
2018-09-13T21:25:23.818Z,27.62
2018-09-13T21:26:04.619Z,27.59
2018-09-13T21:26:45.433Z,27.65
2018-09-13T21:27:26.337Z,27.57
2018-09-13T21:28:07.216Z,27.57
2018-09-13T21:28:48.019Z,27.51
2018-09-13T21:29:28.805Z,27.6
2018-09-13T21:30:09.607Z,27.51
2018-09-13T21:30:50.580Z,27.51
2018-09-13T21:31:31.340Z,27.5
2018-09-13T21:32:12.075Z,27.51
2018-09-13T21:32:52.871Z,27.55
2018-09-13T21:33:33.579Z,27.55
2018-09-13T21:34:14.492Z,27.5
2018-09-13T21:34:55.330Z,27.57
2018-09-13T21:35:36.175Z,27.59
2018-09-13T21:36:16.904Z,27.5
2018-09-13T21:36:57.683Z,27.5
2018-09-13T21:37:38.556Z,27.55
2018-09-13T21:38:19.402Z,27.55
2018-09-13T21:39:00.179Z,27.55
2018-09-13T21:39:40.983Z,27.54
2018-09-13T21:40:21.844Z,27.51
2018-09-13T21:41:02.667Z,27.39
2018-09-13T21:41:44.834Z,27.4
2018-09-13T21:42:25.583Z,27.41
2018-09-13T21:43:06.431Z,27.4
2018-09-13T21:43:47.342Z,27.41
2018-09-13T21:44:28.222Z,27.36
2018-09-13T21:45:08.998Z,27.37
2018-09-13T21:45:49.794Z,27.43
2018-09-13T21:46:30.555Z,27.41
2018-09-13T21:47:11.404Z,27.41
2018-09-13T21:47:52.258Z,27.39
2018-09-13T21:48:33.033Z,27.39
2018-09-13T21:49:13.955Z,27.4
2018-09-13T21:49:54.733Z,27.41
2018-09-13T21:50:35.568Z,27.41
2018-09-13T21:51:16.425Z,27.41
2018-09-13T21:51:57.467Z,27.4
2018-09-13T21:52:38.465Z,27.4
2018-09-13T21:53:19.235Z,27.36
2018-09-13T21:54:00.091Z,27.41
2018-09-13T21:54:40.935Z,27.37
2018-09-13T21:55:21.890Z,27.37
2018-09-13T21:56:02.740Z,27.41
2018-09-13T21:56:43.603Z,27.44
2018-09-13T21:57:24.411Z,27.39
2018-09-13T21:58:05.290Z,27.44
2018-09-13T21:58:46.153Z,27.37
2018-09-13T21:59:26.877Z,27.44
2018-09-13T22:00:07.659Z,27.4
2018-09-13T22:00:48.468Z,27.46
2018-09-13T22:01:29.300Z,27.4
2018-09-13T22:02:10.049Z,27.47
2018-09-13T22:02:50.806Z,27.44
2018-09-13T22:03:31.695Z,27.41
2018-09-13T22:04:12.551Z,27.37
2018-09-13T22:04:53.433Z,27.37
2018-09-13T22:05:34.411Z,27.41
2018-09-13T22:06:15.132Z,27.39
2018-09-13T22:06:56.163Z,27.39
2018-09-13T22:07:37.040Z,27.37
2018-09-13T22:08:17.785Z,27.34
2018-09-13T22:08:58.575Z,27.36
2018-09-13T22:09:39.457Z,27.34
2018-09-13T22:10:20.237Z,27.39
2018-09-13T22:11:01.158Z,27.41
2018-09-13T22:11:41.918Z,27.43
2018-09-13T22:12:22.726Z,27.4
2018-09-13T22:13:03.513Z,27.34
2018-09-13T22:13:44.398Z,27.37
2018-09-13T22:14:25.233Z,27.4
2018-09-13T22:15:06.021Z,27.37
2018-09-13T22:15:46.807Z,27.41
2018-09-13T22:16:27.544Z,27.34
2018-09-13T22:17:08.434Z,27.34
2018-09-13T22:17:49.237Z,27.39
2018-09-13T22:18:29.959Z,27.4
2018-09-13T22:19:10.888Z,27.29
2018-09-13T22:19:51.669Z,27.37
2018-09-13T22:20:32.522Z,27.34
2018-09-13T22:21:13.412Z,27.32
2018-09-13T22:21:54.258Z,27.41
2018-09-13T22:22:35.100Z,27.31
2018-09-13T22:23:15.869Z,27.37
2018-09-13T22:23:56.684Z,27.36
2018-09-13T22:24:37.402Z,27.32
2018-09-13T22:25:18.190Z,27.34
2018-09-13T22:25:59.048Z,27.32
2018-09-13T22:26:39.829Z,27.43
2018-09-13T22:27:20.657Z,27.4
2018-09-13T22:28:01.413Z,27.34
2018-09-13T22:28:42.155Z,27.32
2018-09-13T22:29:22.955Z,27.31
2018-09-13T22:30:03.781Z,27.32
2018-09-13T22:30:44.584Z,27.32
2018-09-13T22:31:25.337Z,27.4
2018-09-13T22:32:06.191Z,27.36
2018-09-13T22:32:47.071Z,27.22
2018-09-13T22:33:27.921Z,27.18
2018-09-13T22:34:08.687Z,27.25
2018-09-13T22:34:49.460Z,27.28
2018-09-13T22:35:30.285Z,27.32
2018-09-13T22:36:11.074Z,27.25
2018-09-13T22:36:51.828Z,27.24
2018-09-13T22:37:32.607Z,27.19
2018-09-13T22:38:13.395Z,27.24
2018-09-13T22:38:54.209Z,27.32
2018-09-13T22:39:34.960Z,27.27
2018-09-13T22:40:15.759Z,27.27
2018-09-13T22:40:56.627Z,27.18
2018-09-13T22:41:37.471Z,27.27
2018-09-13T22:42:18.290Z,27.22
2018-09-13T22:42:59.076Z,27.21
2018-09-13T22:43:39.886Z,27.27
2018-09-13T22:44:20.680Z,27.29
2018-09-13T22:45:01.499Z,27.22
2018-09-13T22:45:42.334Z,27.12
2018-09-13T22:46:23.207Z,27.29
2018-09-13T22:47:03.988Z,27.28
2018-09-13T22:47:44.725Z,27.31
2018-09-13T22:48:25.599Z,27.24
2018-09-13T22:49:06.449Z,27.28
2018-09-13T22:49:47.213Z,27.32
2018-09-13T22:50:27.990Z,27.28
2018-09-13T22:51:08.765Z,27.27
2018-09-13T22:51:49.629Z,27.27
2018-09-13T22:52:30.481Z,27.29
2018-09-13T22:53:11.321Z,27.29
2018-09-13T22:53:52.085Z,27.22
2018-09-13T22:54:32.866Z,27.27
2018-09-13T22:55:13.662Z,27.21
2018-09-13T22:55:54.463Z,27.21
2018-09-13T22:56:35.327Z,27.22
2018-09-13T22:57:16.131Z,27.27
2018-09-13T22:57:56.912Z,27.28
2018-09-13T22:58:38.770Z,27.29
2018-09-13T22:59:18.654Z,27.28
2018-09-13T22:59:59.514Z,27.27
2018-09-13T23:00:41.210Z,27.31
2018-09-13T23:01:21.056Z,27.21
2018-09-13T23:02:01.826Z,27.32
2018-09-13T23:02:42.643Z,27.27
2018-09-13T23:03:23.441Z,27.28
2018-09-13T23:04:04.265Z,27.28
2018-09-13T23:04:44.999Z,27.18
2018-09-13T23:05:25.849Z,27.19
2018-09-13T23:06:06.620Z,27.27
2018-09-13T23:06:47.351Z,27.18
2018-09-13T23:07:28.122Z,27.25
2018-09-13T23:08:08.921Z,27.27
2018-09-13T23:08:49.717Z,27.25
2018-09-13T23:09:30.588Z,27.25
2018-09-13T23:10:11.356Z,27.24
2018-09-13T23:10:52.150Z,27.28
2018-09-13T23:11:33.006Z,27.22
2018-09-13T23:12:13.788Z,27.14
2018-09-13T23:12:54.595Z,27.18
2018-09-13T23:13:35.403Z,27.25
2018-09-13T23:14:16.162Z,27.29
2018-09-13T23:14:56.998Z,27.19
2018-09-13T23:15:37.783Z,27.22
2018-09-13T23:16:18.539Z,27.24
2018-09-13T23:16:59.334Z,27.24
2018-09-13T23:17:40.186Z,27.27
2018-09-13T23:18:21.005Z,27.27
2018-09-13T23:19:01.857Z,27.21
2018-09-13T23:19:42.680Z,27.28
2018-09-13T23:20:23.481Z,27.18
2018-09-13T23:21:04.247Z,27.21
2018-09-13T23:21:45.009Z,27.24
2018-09-13T23:22:25.879Z,27.19
2018-09-13T23:23:06.629Z,27.14
2018-09-13T23:23:47.373Z,27.21
2018-09-13T23:24:28.169Z,27.21
2018-09-13T23:25:09.018Z,27.19
2018-09-13T23:25:49.830Z,27.22
2018-09-13T23:26:30.598Z,27.14
2018-09-13T23:27:11.393Z,27.21
2018-09-13T23:27:52.192Z,27.22
2018-09-13T23:28:32.979Z,27.12
2018-09-13T23:29:13.726Z,27.18
2018-09-13T23:29:54.529Z,27.18
2018-09-13T23:30:35.288Z,27.22
2018-09-13T23:31:16.135Z,27.17
2018-09-13T23:31:56.909Z,27.17
2018-09-13T23:32:37.659Z,27.17
2018-09-13T23:33:18.450Z,27.14
2018-09-13T23:33:59.249Z,27.17
2018-09-13T23:34:40.049Z,27.17
2018-09-13T23:35:20.840Z,27.12
2018-09-13T23:36:01.610Z,27.14
2018-09-13T23:36:42.370Z,27.12
2018-09-13T23:37:23.222Z,27.12
2018-09-13T23:38:04.041Z,27.14
2018-09-13T23:38:44.903Z,27.17
2018-09-13T23:39:25.849Z,27.14
2018-09-13T23:40:06.458Z,27.17
2018-09-13T23:40:47.356Z,27.18
2018-09-13T23:41:28.030Z,27.14
2018-09-13T23:42:08.781Z,27.13
2018-09-13T23:42:49.531Z,27.06
2018-09-13T23:43:30.362Z,27.1
2018-09-13T23:44:11.184Z,27.12
2018-09-13T23:44:51.951Z,27.1
2018-09-13T23:45:32.704Z,27.22
2018-09-13T23:46:13.574Z,27.14
2018-09-13T23:46:54.315Z,27.09
2018-09-13T23:47:35.153Z,27.18
2018-09-13T23:48:15.902Z,27.14
2018-09-13T23:48:56.668Z,27.09
2018-09-13T23:49:37.542Z,27.1
2018-09-13T23:50:18.320Z,27.13
2018-09-13T23:50:59.072Z,27.19
2018-09-13T23:51:39.832Z,27.18
2018-09-13T23:52:20.666Z,27.1
2018-09-13T23:53:01.473Z,27.1
2018-09-13T23:53:42.279Z,27.09
2018-09-13T23:54:23.074Z,27.12
2018-09-13T23:55:03.824Z,27.09
2018-09-13T23:55:44.599Z,27.12
2018-09-13T23:56:25.331Z,27.1
2018-09-13T23:57:06.161Z,27.12
2018-09-13T23:57:46.909Z,27.1
2018-09-13T23:58:27.667Z,27.1
2018-09-13T23:59:08.505Z,27.1
2018-09-13T23:59:49.348Z,27.09
